Time;durP1;ratioP1;P1;durP2;ratioP2;P2;SDS_P1;SDS_P2;PMS_P1;PMS_P2;Temp;Humidity;BMP_temperature;BMP_pressure;BME280_temperature;BME280_humidity;BME280_pressure;Samples;Min_cycle;Max_cycle;Signal;HPM_P1;HPM_P2
2024/02/09 00:00:17;;;;;;;1.65;0.60;;;21.80;45.90;;;;;;10353740;28;20077;-48
2024/02/09 00:05:20;;;;;;;2.33;0.70;;;21.80;46.30;;;;;;10348023;28;20113;-49
2024/02/09 00:10:22;;;;;;;1.73;0.70;;;21.90;45.50;;;;;;10348910;28;20084;-49
2024/02/09 00:15:24;;;;;;;2.58;0.65;;;22.00;45.60;;;;;;10351762;28;20045;-47
2024/02/09 00:20:27;;;;;;;0.60;0.47;;;21.90;45.60;;;;;;10354190;28;20073;-50
2024/02/09 00:25:29;;;;;;;1.35;0.50;;;21.80;45.70;;;;;;10354158;28;20056;-46
2024/02/09 00:30:32;;;;;;;1.63;0.50;;;21.90;45.50;;;;;;10358551;28;20044;-47
2024/02/09 00:35:35;;;;;;;0.90;0.60;;;21.90;45.30;;;;;;10356246;28;20097;-47
2024/02/09 00:40:37;;;;;;;0.60;0.50;;;21.80;45.50;;;;;;10354605;28;20050;-50
2024/02/09 00:45:38;;;;;;;0.45;0.40;;;21.90;45.30;;;;;;10353041;28;20218;-49
2024/02/09 00:50:41;;;;;;;1.80;0.60;;;21.90;45.20;;;;;;10353561;28;20046;-48
2024/02/09 00:55:43;;;;;;;2.35;0.75;;;21.90;45.20;;;;;;10357906;28;20160;-49
2024/02/09 01:00:44;;;;;;;2.80;0.60;;;21.70;45.40;;;;;;10362040;28;20121;-47
2024/02/09 01:05:47;;;;;;;1.52;0.50;;;21.80;45.20;;;;;;10358303;28;20222;-47
2024/02/09 01:10:49;;;;;;;2.45;0.60;;;21.70;45.30;;;;;;10353753;28;20129;-46
2024/02/09 02:46:17;;;;;;;;;;;21.20;44.80;;;;;;10356110;28;20074;-49
2024/02/09 03:07:24;;;;;;;0.60;0.40;;;21.20;44.50;;;;;;10354706;28;20144;-46
2024/02/09 03:12:28;;;;;;;0.40;0.30;;;21.20;44.80;;;;;;10357434;28;20054;-46
2024/02/09 03:17:32;;;;;;;0.57;0.40;;;21.10;44.70;;;;;;10354433;28;20140;-49
2024/02/09 03:22:39;;;;;;;0.80;0.40;;;21.20;44.60;;;;;;10359241;28;20077;-47
2024/02/09 03:27:42;;;;;;;0.40;0.32;;;21.20;44.40;;;;;;10357631;28;20045;-47
2024/02/09 03:32:45;;;;;;;0.40;0.40;;;21.00;44.50;;;;;;10353452;28;20073;-48
2024/02/09 03:37:47;;;;;;;0.30;0.30;;;21.00;44.40;;;;;;10356139;28;20050;-46
2024/02/09 03:42:50;;;;;;;0.60;0.50;;;21.00;44.50;;;;;;10355052;28;20136;-47
2024/02/09 03:47:52;;;;;;;0.45;0.40;;;21.10;44.30;;;;;;10350917;28;20042;-46
2024/02/09 03:52:53;;;;;;;0.35;0.35;;;21.00;44.30;;;;;;10351259;28;20077;-50
2024/02/09 03:57:57;;;;;;;0.93;0.40;;;21.00;44.20;;;;;;10350837;28;20407;-48
2024/02/09 04:02:58;;;;;;;1.67;0.40;;;21.00;44.20;;;;;;10356141;28;20136;-46
2024/02/09 04:08:01;;;;;;;0.70;0.40;;;20.90;44.60;;;;;;10358475;28;20053;-50
2024/02/09 04:13:05;;;;;;;0.47;0.30;;;20.90;45.00;;;;;;10358424;28;20038;-46
2024/02/09 04:18:07;;;;;;;0.40;0.40;;;20.90;45.30;;;;;;10358754;28;20076;-46
2024/02/09 04:23:10;;;;;;;0.38;0.35;;;21.00;45.30;;;;;;10352998;28;20050;-46
2024/02/09 04:28:17;;;;;;;0.40;0.32;;;21.10;45.10;;;;;;10351383;28;20050;-46
2024/02/09 04:33:18;;;;;;;0.50;0.47;;;21.30;45.00;;;;;;10345931;28;20137;-50
2024/02/09 04:38:20;;;;;;;0.38;0.30;;;21.50;44.70;;;;;;10345486;28;20145;-48
2024/02/09 04:43:23;;;;;;;0.65;0.30;;;21.70;44.50;;;;;;10353141;28;20456;-47
2024/02/09 04:48:25;;;;;;;0.70;0.50;;;21.80;44.20;;;;;;10360140;28;20415;-51
2024/02/09 04:53:26;;;;;;;0.30;0.30;;;21.90;44.10;;;;;;10357974;28;20046;-46
2024/02/09 04:58:31;;;;;;;0.65;0.40;;;22.00;43.90;;;;;;10360087;28;20056;-46
2024/02/09 05:03:32;;;;;;;0.45;0.32;;;22.10;44.00;;;;;;10357238;28;20066;-47
2024/02/09 05:08:36;;;;;;;0.30;0.30;;;22.10;44.00;;;;;;10354840;28;20452;-48
2024/02/09 05:13:40;;;;;;;0.30;0.30;;;22.10;43.90;;;;;;10357977;28;20492;-46
2024/02/09 05:18:42;;;;;;;1.10;0.50;;;22.20;43.90;;;;;;10360025;28;20133;-47
2024/02/09 05:23:43;;;;;;;0.45;0.30;;;22.20;43.80;;;;;;10366323;28;20046;-46
2024/02/09 05:28:46;;;;;;;0.52;0.40;;;22.20;43.90;;;;;;10364816;28;20837;-47
2024/02/09 05:33:48;;;;;;;0.40;0.40;;;22.20;44.00;;;;;;10364687;28;20053;-46
2024/02/09 05:38:52;;;;;;;0.50;0.40;;;22.20;43.90;;;;;;10359408;28;20093;-46
2024/02/09 05:43:55;;;;;;;0.40;0.40;;;22.30;43.60;;;;;;10352680;28;20046;-49
2024/02/09 05:48:57;;;;;;;0.30;0.30;;;22.30;43.60;;;;;;10352494;28;20042;-46
2024/02/09 05:53:58;;;;;;;0.30;0.30;;;22.30;43.70;;;;;;10353459;28;20047;-46
2024/02/09 05:59:04;;;;;;;0.40;0.40;;;22.30;43.80;;;;;;10351269;28;20492;-51
2024/02/09 06:04:06;;;;;;;0.52;0.40;;;22.40;43.60;;;;;;10361293;28;20061;-51
2024/02/09 06:09:07;;;;;;;1.00;0.40;;;22.50;43.10;;;;;;10360291;28;20556;-49
2024/02/09 06:14:10;;;;;;;0.80;0.30;;;22.50;43.10;;;;;;10361435;28;20140;-49
2024/02/09 06:19:12;;;;;;;0.40;0.40;;;22.60;43.40;;;;;;10356715;28;20134;-47
2024/02/09 06:24:14;;;;;;;2.47;0.50;;;22.50;43.50;;;;;;10362429;28;20503;-47
2024/02/09 06:29:17;;;;;;;1.48;0.57;;;22.40;43.90;;;;;;10362767;28;20064;-52
2024/02/09 06:34:19;;;;;;;13.13;2.38;;;22.50;43.90;;;;;;10359963;28;20046;-48
2024/02/09 06:39:22;;;;;;;11.45;2.03;;;22.50;44.70;;;;;;10363600;28;20165;-48
2024/02/09 06:44:25;;;;;;;2.90;1.40;;;22.40;43.00;;;;;;10356979;28;20038;-49
2024/02/09 06:49:28;;;;;;;2.25;1.05;;;22.40;41.70;;;;;;10359292;28;20427;-46
2024/02/09 06:54:30;;;;;;;2.92;0.93;;;22.20;41.70;;;;;;10360830;28;20132;-46
2024/02/09 06:59:32;;;;;;;2.95;1.08;;;22.20;42.10;;;;;;10357336;28;20056;-46
2024/02/09 07:04:36;;;;;;;3.17;0.90;;;22.10;42.30;;;;;;10352507;28;20128;-50
2024/02/09 07:09:37;;;;;;;5.45;0.80;;;22.10;42.40;;;;;;10357663;28;20113;-48
2024/02/09 07:14:41;;;;;;;1.30;0.70;;;21.90;42.80;;;;;;10357921;28;20559;-47
2024/02/09 07:19:44;;;;;;;3.08;0.95;;;21.90;42.70;;;;;;10356849;28;20137;-47
2024/02/09 07:24:46;;;;;;;1.83;0.80;;;22.10;42.30;;;;;;10359340;28;20046;-48
2024/02/09 07:29:49;;;;;;;1.45;0.70;;;22.10;42.20;;;;;;10353677;28;20141;-46
2024/02/09 07:34:51;;;;;;;2.88;0.90;;;21.90;42.50;;;;;;10358060;28;20542;-47
2024/02/09 07:39:52;;;;;;;4.13;1.25;;;22.10;42.50;;;;;;10355238;28;20050;-51
2024/02/09 07:44:55;;;;;;;3.67;1.20;;;22.10;42.80;;;;;;10361011;28;20479;-47
2024/02/09 07:49:57;;;;;;;6.68;1.45;;;22.00;43.30;;;;;;10358986;28;20064;-49
2024/02/09 07:54:58;;;;;;;10.10;2.80;;;21.90;43.50;;;;;;10359753;28;20050;-49
2024/02/09 08:00:01;;;;;;;7.00;1.65;;;21.80;43.70;;;;;;10361936;28;20129;-47
2024/02/09 08:05:07;;;;;;;5.07;1.90;;;21.80;43.50;;;;;;10353853;28;20073;-49
2024/02/09 08:10:10;;;;;;;5.72;1.35;;;21.80;43.80;;;;;;10353160;28;20049;-49
2024/02/09 08:15:13;;;;;;;11.75;3.10;;;21.80;43.10;;;;;;10356731;28;20038;-51
2024/02/09 08:20:15;;;;;;;6.53;4.68;;;21.70;43.80;;;;;;10355024;28;20056;-48
2024/02/09 08:25:17;;;;;;;8.25;5.65;;;21.70;44.10;;;;;;10350668;28;20467;-48
2024/02/09 08:30:20;;;;;;;6.78;5.00;;;21.90;43.90;;;;;;10351349;28;20054;-50
2024/02/09 08:35:22;;;;;;;9.70;3.90;;;21.80;44.30;;;;;;10354412;28;20558;-48
2024/02/09 08:40:25;;;;;;;6.95;2.28;;;21.60;45.10;;;;;;10349341;28;20080;-49
2024/02/09 08:45:28;;;;;;;4.22;2.17;;;21.60;42.00;;;;;;10348936;28;20097;-48
2024/02/09 08:50:30;;;;;;;4.57;1.80;;;21.70;43.10;;;;;;10354127;28;20045;-50
2024/02/09 08:55:31;;;;;;;3.08;1.50;;;21.60;43.00;;;;;;10356499;28;20052;-49
2024/02/09 09:00:34;;;;;;;2.15;1.17;;;21.70;42.60;;;;;;10357327;28;20546;-49
2024/02/09 09:05:36;;;;;;;1.83;1.00;;;21.60;42.30;;;;;;10350240;28;20047;-48
2024/02/09 09:10:38;;;;;;;14.10;1.40;;;21.60;42.30;;;;;;10349072;28;20060;-49
2024/02/09 09:15:42;;;;;;;5.55;1.10;;;21.60;43.40;;;;;;10357637;28;20542;-49
2024/02/09 09:20:44;;;;;;;2.70;0.95;;;21.90;42.30;;;;;;10354766;28;20074;-50
2024/02/09 09:25:46;;;;;;;9.98;0.77;;;21.90;42.00;;;;;;10353650;28;20046;-49
2024/02/09 09:30:49;;;;;;;1.88;0.73;;;21.70;42.30;;;;;;10355998;28;20044;-50
2024/02/09 09:35:52;;;;;;;5.38;1.38;;;21.60;42.70;;;;;;10362115;28;20056;-49
2024/02/09 09:40:54;;;;;;;3.28;0.90;;;21.50;43.10;;;;;;10356497;28;20069;-49
2024/02/09 09:45:57;;;;;;;4.63;0.73;;;21.40;44.00;;;;;;10359795;28;20495;-51
2024/02/09 09:50:59;;;;;;;4.97;0.90;;;21.70;44.10;;;;;;10360479;28;20046;-48
2024/02/09 09:56:01;;;;;;;9.77;1.20;;;22.00;43.20;;;;;;10362690;28;20042;-49
2024/02/09 10:01:05;;;;;;;7.95;1.02;;;22.00;43.50;;;;;;10361031;28;20125;-51
2024/02/09 10:06:07;;;;;;;5.90;0.85;;;22.10;43.80;;;;;;10362761;28;20044;-49
2024/02/09 10:11:08;;;;;;;5.45;1.10;;;22.20;43.60;;;;;;10358954;28;21048;-51
2024/02/09 10:16:11;;;;;;;7.55;0.98;;;22.30;43.20;;;;;;10360559;28;20561;-48
2024/02/09 10:21:13;;;;;;;10.88;0.98;;;22.30;42.40;;;;;;10360303;28;20046;-48
2024/02/09 10:26:15;;;;;;;7.22;1.20;;;22.20;41.70;;;;;;10358003;28;20049;-48
2024/02/09 10:31:18;;;;;;;6.03;1.30;;;22.30;42.60;;;;;;10362365;28;20041;-49
2024/02/09 10:36:22;;;;;;;7.22;1.48;;;22.40;42.70;;;;;;10365928;28;20048;-50
2024/02/09 10:41:25;;;;;;;5.22;1.20;;;22.50;42.60;;;;;;10362717;28;20046;-49
2024/02/09 10:46:29;;;;;;;8.00;1.60;;;22.60;42.60;;;;;;10358263;28;20567;-49
2024/02/09 10:51:35;;;;;;;6.28;1.30;;;22.60;42.80;;;;;;10354223;28;20392;-51
2024/02/09 10:56:37;;;;;;;4.05;1.00;;;22.60;43.10;;;;;;10360418;28;20565;-50
2024/02/09 11:01:40;;;;;;;5.75;1.27;;;22.50;43.30;;;;;;10359176;28;20046;-50
2024/02/09 11:06:42;;;;;;;7.75;0.98;;;22.50;44.10;;;;;;10355930;28;20133;-47
2024/02/09 11:11:44;;;;;;;4.65;1.02;;;22.70;45.70;;;;;;10358005;28;20046;-48
2024/02/09 11:16:48;;;;;;;5.80;1.17;;;22.80;46.10;;;;;;10359869;28;20050;-51
2024/02/09 11:21:55;;;;;;;3.20;1.20;;;22.40;47.60;;;;;;10359680;28;20434;-49
2024/02/09 11:26:59;;;;;;;5.45;1.58;;;22.80;46.60;;;;;;10357456;28;20562;-51
2024/02/09 11:32:02;;;;;;;5.70;1.40;;;23.10;45.30;;;;;;10360181;28;20041;-53
2024/02/09 11:37:04;;;;;;;9.82;6.05;;;23.00;45.10;;;;;;10356923;28;20065;-49
2024/02/09 11:42:06;;;;;;;15.18;10.38;;;22.70;45.70;;;;;;10360101;28;20165;-49
2024/02/09 11:47:09;;;;;;;55.03;41.63;;;22.70;45.80;;;;;;10358347;28;20042;-50
2024/02/09 11:52:11;;;;;;;847.90;662.33;;;22.80;45.80;;;;;;10359401;28;20046;-48
2024/02/09 11:57:13;;;;;;;718.38;577.83;;;23.00;45.40;;;;;;10357649;28;20486;-49
2024/02/09 12:02:17;;;;;;;598.15;461.48;;;22.90;44.50;;;;;;10355496;28;20048;-49
2024/02/09 12:07:18;;;;;;;569.67;428.40;;;22.40;45.60;;;;;;10351013;28;20072;-50
2024/02/09 12:12:22;;;;;;;504.98;364.60;;;22.30;46.30;;;;;;10348368;28;20132;-50
2024/02/09 12:17:25;;;;;;;452.80;318.73;;;22.30;47.00;;;;;;10350764;28;20052;-49
2024/02/09 12:22:29;;;;;;;343.65;223.88;;;22.40;46.20;;;;;;10358403;28;20038;-49
2024/02/09 12:27:31;;;;;;;279.73;175.45;;;22.70;46.40;;;;;;10356444;28;20049;-50
2024/02/09 12:32:34;;;;;;;235.05;147.30;;;22.90;44.80;;;;;;10360270;28;20050;-52
2024/02/09 12:37:35;;;;;;;205.85;123.90;;;22.80;45.10;;;;;;10357014;28;20046;-48
2024/02/09 12:42:41;;;;;;;168.68;104.45;;;22.40;46.80;;;;;;10358186;28;20041;-48
2024/02/09 12:47:46;;;;;;;144.23;86.82;;;22.70;46.80;;;;;;10355694;28;20049;-48
2024/02/09 12:52:49;;;;;;;126.10;76.82;;;22.90;46.80;;;;;;10356171;28;20527;-50
2024/02/09 12:57:52;;;;;;;119.50;73.10;;;22.80;47.50;;;;;;10356361;28;20492;-48
2024/02/09 13:02:55;;;;;;;105.30;64.38;;;22.40;48.30;;;;;;10356589;28;20459;-49
2024/02/09 13:07:58;;;;;;;93.55;55.95;;;22.50;48.00;;;;;;10356818;28;20046;-48
2024/02/09 13:13:06;;;;;;;73.95;46.80;;;22.60;47.10;;;;;;10363168;28;20078;-48
2024/02/09 13:18:10;;;;;;;68.88;42.97;;;22.50;47.00;;;;;;10353105;28;20609;-49
2024/02/09 13:23:12;;;;;;;55.28;37.03;;;22.50;47.00;;;;;;10359047;28;20053;-48
2024/02/09 13:28:16;;;;;;;53.10;35.20;;;22.50;46.90;;;;;;10357553;28;20177;-48
2024/02/09 13:33:19;;;;;;;52.25;33.58;;;22.40;46.90;;;;;;10354473;28;20046;-49
2024/02/09 13:38:22;;;;;;;45.30;29.95;;;22.40;46.90;;;;;;10356939;28;20046;-48
2024/02/09 13:43:24;;;;;;;40.45;27.65;;;22.50;46.90;;;;;;10358047;28;20490;-50
2024/02/09 13:48:27;;;;;;;37.67;25.75;;;22.50;46.80;;;;;;10364059;28;20042;-49
2024/02/09 13:53:29;;;;;;;38.38;24.20;;;22.40;46.90;;;;;;10360966;28;20041;-48
2024/02/09 13:58:31;;;;;;;35.30;21.40;;;22.50;47.00;;;;;;10363507;28;20054;-48
2024/02/09 14:03:33;;;;;;;30.13;20.38;;;22.50;46.90;;;;;;10358320;28;20133;-48
2024/02/09 14:08:36;;;;;;;31.25;18.33;;;22.50;46.80;;;;;;10355694;28;20136;-48
2024/02/09 14:13:38;;;;;;;27.35;17.00;;;22.50;46.90;;;;;;10352291;28;20061;-49
2024/02/09 14:18:41;;;;;;;26.42;16.10;;;22.60;46.70;;;;;;10358730;28;20061;-49
2024/02/09 14:23:42;;;;;;;20.95;13.98;;;22.60;46.60;;;;;;10357682;28;20050;-47
2024/02/09 14:28:44;;;;;;;20.38;13.60;;;22.60;46.80;;;;;;10354910;28;20060;-50
2024/02/09 14:33:47;;;;;;;19.30;13.57;;;22.60;46.70;;;;;;10360079;28;20050;-48
2024/02/09 14:38:50;;;;;;;18.67;11.88;;;22.60;46.70;;;;;;10360109;28;20049;-50
2024/02/09 14:43:52;;;;;;;18.05;10.77;;;22.60;46.70;;;;;;10350563;28;20064;-48
2024/02/09 14:48:54;;;;;;;18.23;10.30;;;22.60;46.60;;;;;;10358315;28;20247;-48
2024/02/09 14:53:56;;;;;;;13.45;8.75;;;22.70;46.70;;;;;;10358031;28;20132;-49
2024/02/09 14:58:58;;;;;;;13.90;8.70;;;22.60;46.70;;;;;;10355442;28;20042;-49
2024/02/09 15:04:01;;;;;;;14.40;8.63;;;22.60;46.60;;;;;;10356549;28;20045;-49
2024/02/09 15:09:03;;;;;;;12.38;7.82;;;22.70;46.50;;;;;;10359933;28;20092;-49
2024/02/09 15:14:04;;;;;;;12.27;7.70;;;22.70;46.50;;;;;;10358799;28;20053;-50
2024/02/09 15:19:11;;;;;;;12.95;7.13;;;22.70;46.50;;;;;;10353443;28;20052;-49
2024/02/09 15:24:12;;;;;;;14.88;6.30;;;22.70;46.60;;;;;;10348910;28;20046;-48
2024/02/09 15:29:14;;;;;;;9.18;5.90;;;22.70;46.60;;;;;;10345817;28;20042;-48
2024/02/09 15:34:17;;;;;;;9.35;5.65;;;22.70;46.60;;;;;;10342969;28;20050;-48
2024/02/09 15:39:19;;;;;;;10.23;5.88;;;22.70;46.50;;;;;;10352650;28;20522;-48
2024/02/09 15:44:20;;;;;;;7.57;5.05;;;22.80;46.50;;;;;;10353608;28;20169;-48
2024/02/09 15:49:24;;;;;;;7.38;4.53;;;22.70;46.40;;;;;;10351281;28;20134;-51
2024/02/09 15:54:26;;;;;;;6.43;4.35;;;22.70;46.50;;;;;;10351291;28;20389;-48
2024/02/09 15:59:28;;;;;;;7.22;3.97;;;22.90;45.90;;;;;;10346272;28;20587;-48
2024/02/09 16:04:30;;;;;;;6.20;3.65;;;23.00;45.70;;;;;;10353903;28;20140;-47
2024/02/09 16:09:32;;;;;;;6.07;3.38;;;23.10;45.40;;;;;;10356394;28;20141;-49
2024/02/09 16:14:34;;;;;;;5.97;3.50;;;23.20;45.20;;;;;;10356692;28;20132;-49
2024/02/09 16:19:37;;;;;;;5.97;3.50;;;23.20;44.90;;;;;;10358206;28;20447;-50
2024/02/09 16:24:38;;;;;;;5.18;3.35;;;23.20;44.80;;;;;;10354620;28;20045;-50
2024/02/09 16:29:40;;;;;;;5.38;3.25;;;23.10;45.00;;;;;;10354353;28;20045;-49
2024/02/09 16:34:46;;;;;;;6.68;3.70;;;23.20;44.90;;;;;;10350997;28;20042;-48
2024/02/09 16:39:50;;;;;;;5.63;2.95;;;23.10;45.00;;;;;;10347363;28;20046;-50
2024/02/09 16:44:52;;;;;;;3.70;2.60;;;23.20;44.80;;;;;;10346467;28;20046;-49
2024/02/09 16:49:55;;;;;;;5.10;2.83;;;23.10;44.80;;;;;;10353641;28;20045;-49
2024/02/09 16:54:57;;;;;;;4.22;2.30;;;23.20;44.70;;;;;;10352084;28;20049;-48
2024/02/09 16:59:59;;;;;;;3.15;2.28;;;23.10;44.90;;;;;;10354010;28;20045;-49
2024/02/09 17:05:02;;;;;;;4.97;2.47;;;23.00;44.90;;;;;;10347703;28;20555;-48
2024/02/09 17:10:04;;;;;;;2.80;2.22;;;23.10;44.80;;;;;;10349115;28;20550;-48
2024/02/09 17:15:08;;;;;;;2.85;2.15;;;22.90;45.00;;;;;;10352099;28;20136;-49
2024/02/09 17:20:12;;;;;;;3.38;2.20;;;23.10;44.80;;;;;;10355256;28;20558;-49
2024/02/09 17:25:13;;;;;;;3.90;2.13;;;23.10;44.70;;;;;;10350503;28;20046;-49
2024/02/09 17:30:15;;;;;;;2.80;1.98;;;23.10;44.70;;;;;;10354465;28;20048;-49
2024/02/09 17:35:18;;;;;;;3.30;1.90;;;23.10;44.70;;;;;;10353916;28;20056;-48
2024/02/09 17:40:21;;;;;;;2.67;1.80;;;23.00;44.70;;;;;;10353891;28;20042;-50
2024/02/09 17:45:22;;;;;;;2.20;1.63;;;23.00;44.80;;;;;;10351377;28;20050;-48
2024/02/09 17:50:26;;;;;;;1.70;1.30;;;23.00;44.60;;;;;;10354163;28;20068;-52
2024/02/09 17:55:28;;;;;;;1.73;1.50;;;22.90;44.50;;;;;;10358621;28;20407;-48
2024/02/09 18:00:31;;;;;;;6.18;1.35;;;22.70;44.60;;;;;;10366465;28;20046;-47
2024/02/09 18:05:34;;;;;;;2.38;1.65;;;22.80;44.80;;;;;;10359344;28;20536;-49
2024/02/09 18:10:36;;;;;;;8.18;1.63;;;22.90;45.40;;;;;;10365871;28;20054;-48
2024/02/09 18:15:38;;;;;;;8.30;1.63;;;22.90;45.80;;;;;;10356468;28;20042;-50
2024/02/09 18:20:42;;;;;;;1.70;1.15;;;22.90;45.50;;;;;;10354271;28;20061;-49
2024/02/09 18:25:43;;;;;;;5.13;1.58;;;22.90;45.50;;;;;;10353745;28;20054;-50
2024/02/09 18:30:46;;;;;;;3.83;1.35;;;23.00;45.50;;;;;;10361106;28;20084;-49
2024/02/09 18:35:52;;;;;;;3.90;1.50;;;22.90;45.70;;;;;;10365034;28;20046;-51
2024/02/09 18:40:54;;;;;;;4.43;1.58;;;22.90;45.80;;;;;;10362489;28;20133;-49
2024/02/09 18:45:55;;;;;;;6.60;1.40;;;23.00;45.70;;;;;;10362956;28;20041;-49
2024/02/09 18:50:58;;;;;;;3.15;1.40;;;23.00;45.70;;;;;;10355538;28;20042;-49
2024/02/09 18:56:00;;;;;;;3.17;1.30;;;23.00;45.70;;;;;;10360593;28;20050;-51
2024/02/09 19:01:05;;;;;;;3.05;1.30;;;23.00;45.60;;;;;;10359419;28;20049;-50
2024/02/09 19:06:08;;;;;;;3.45;1.33;;;23.10;45.70;;;;;;10361485;28;20042;-50
2024/02/09 19:11:11;;;;;;;2.10;1.10;;;23.00;45.70;;;;;;10359451;28;20056;-50
2024/02/09 19:16:12;;;;;;;2.80;1.00;;;23.00;45.70;;;;;;10359828;28;20523;-52
2024/02/09 19:21:15;;;;;;;1.45;1.02;;;22.90;45.70;;;;;;10356573;28;20049;-49
2024/02/09 19:26:17;;;;;;;4.45;1.30;;;22.90;45.70;;;;;;10351246;28;20069;-48
2024/02/09 19:31:19;;;;;;;2.15;1.10;;;22.90;45.60;;;;;;10353593;28;20042;-47
2024/02/09 19:36:22;;;;;;;1.65;1.10;;;22.90;45.60;;;;;;10352054;28;20042;-50
2024/02/09 19:41:24;;;;;;;2.78;1.00;;;22.90;45.50;;;;;;10354737;28;20427;-47
2024/02/09 19:46:27;;;;;;;1.83;1.00;;;22.80;45.70;;;;;;10356690;28;20038;-47
2024/02/09 19:51:30;;;;;;;2.13;1.10;;;22.80;45.70;;;;;;10360950;28;20057;-47
2024/02/09 19:56:32;;;;;;;1.30;1.00;;;22.90;45.50;;;;;;10357629;28;20050;-48
2024/02/09 20:01:33;;;;;;;0.98;0.80;;;22.90;45.60;;;;;;10360622;28;20156;-49
2024/02/09 20:06:36;;;;;;;1.85;0.85;;;22.90;45.80;;;;;;10350744;28;20507;-53
2024/02/09 20:11:38;;;;;;;1.73;1.00;;;23.00;45.70;;;;;;10358598;28;20050;-49
2024/02/09 20:16:40;;;;;;;4.00;1.17;;;22.90;45.70;;;;;;10361725;28;20418;-47
2024/02/09 20:21:43;;;;;;;1.20;1.00;;;22.70;46.80;;;;;;10359108;28;20088;-47
2024/02/09 20:26:45;;;;;;;2.17;1.15;;;22.80;47.00;;;;;;10355023;28;20050;-50
2024/02/09 20:31:47;;;;;;;1.08;0.90;;;22.70;47.10;;;;;;10354970;28;20092;-51
2024/02/09 20:36:51;;;;;;;2.00;0.95;;;22.70;47.20;;;;;;10347817;28;20109;-50
2024/02/09 20:41:53;;;;;;;2.22;1.20;;;22.70;47.10;;;;;;10349537;28;20507;-47
2024/02/09 20:46:56;;;;;;;3.28;1.10;;;22.50;47.20;;;;;;10349406;28;20058;-51
2024/02/09 20:52:06;;;;;;;2.92;0.93;;;22.40;47.30;;;;;;10359156;28;20562;-49
2024/02/09 20:57:08;;;;;;;2.03;0.80;;;22.50;47.10;;;;;;10358530;28;20045;-50
2024/02/09 21:02:12;;;;;;;3.95;1.10;;;22.50;46.90;;;;;;10356314;28;20056;-47
2024/02/09 21:07:16;;;;;;;1.75;1.08;;;22.30;46.90;;;;;;10354702;28;20140;-47
2024/02/09 21:12:22;;;;;;;1.23;1.00;;;22.20;47.10;;;;;;10357308;28;20046;-50
2024/02/09 21:17:25;;;;;;;1.42;0.90;;;22.20;47.10;;;;;;10350207;28;20101;-50
2024/02/09 21:22:28;;;;;;;4.95;1.13;;;22.10;47.10;;;;;;10350900;28;20129;-49
2024/02/09 21:27:32;;;;;;;1.45;0.90;;;22.10;47.30;;;;;;10358840;28;20069;-48
2024/02/09 21:32:34;;;;;;;1.00;0.90;;;21.90;47.50;;;;;;10364577;28;20053;-51
2024/02/09 21:37:37;;;;;;;3.17;1.20;;;21.90;47.50;;;;;;10363433;28;20101;-47
2024/02/09 21:42:39;;;;;;;1.58;0.88;;;21.90;47.30;;;;;;10358881;28;20049;-50
2024/02/09 21:47:41;;;;;;;2.58;1.23;;;21.90;47.00;;;;;;10352826;28;20042;-47
2024/02/09 21:52:44;;;;;;;1.52;0.90;;;21.90;47.00;;;;;;10351833;28;20142;-50
2024/02/09 21:57:46;;;;;;;2.15;1.10;;;21.90;47.00;;;;;;10354181;28;20080;-47
2024/02/09 22:02:49;;;;;;;3.83;0.90;;;21.70;47.40;;;;;;10361344;28;20095;-48
2024/02/09 22:07:52;;;;;;;1.45;1.08;;;21.50;47.80;;;;;;10364498;28;20039;-47
2024/02/09 22:12:54;;;;;;;1.08;0.98;;;21.40;48.10;;;;;;10363984;28;20052;-49
2024/02/09 22:17:56;;;;;;;1.45;1.13;;;21.10;48.50;;;;;;10362903;28;20522;-49
2024/02/09 22:22:59;;;;;;;1.15;0.98;;;20.90;48.90;;;;;;10357605;28;20482;-49
2024/02/09 22:28:01;;;;;;;1.30;1.10;;;20.80;49.00;;;;;;10359765;28;20047;-48
2024/02/09 22:33:04;;;;;;;1.30;1.15;;;20.70;49.30;;;;;;10359479;28;20060;-47
2024/02/09 22:38:08;;;;;;;1.35;1.25;;;20.50;49.50;;;;;;10356545;28;20047;-47
2024/02/09 22:43:10;;;;;;;1.20;1.10;;;20.50;49.50;;;;;;10360487;28;20129;-47
2024/02/09 22:48:16;;;;;;;1.80;1.15;;;20.60;49.10;;;;;;10359920;28;20050;-46
2024/02/09 22:53:19;;;;;;;1.95;1.17;;;20.50;49.10;;;;;;10356264;28;20084;-51
2024/02/09 22:58:21;;;;;;;1.98;1.40;;;20.50;48.90;;;;;;10352402;28;20073;-47
2024/02/09 23:03:25;;;;;;;1.55;1.20;;;20.60;48.70;;;;;;10353666;28;20042;-47
2024/02/09 23:08:35;;;;;;;1.50;1.40;;;20.50;48.80;;;;;;10352531;28;20045;-48
2024/02/09 23:13:37;;;;;;;1.60;1.20;;;20.50;48.40;;;;;;10355036;28;20112;-51
2024/02/09 23:18:39;;;;;;;1.42;1.30;;;20.50;48.40;;;;;;10361897;28;20492;-48
2024/02/09 23:23:43;;;;;;;1.83;1.20;;;20.50;48.30;;;;;;10358680;28;20054;-46
2024/02/09 23:28:45;;;;;;;2.35;1.40;;;20.40;48.40;;;;;;10361894;28;20503;-50
2024/02/09 23:33:46;;;;;;;1.33;1.20;;;20.30;48.50;;;;;;10359796;28;20058;-48
2024/02/09 23:38:49;;;;;;;1.42;1.30;;;20.30;48.60;;;;;;10359945;28;20050;-47
2024/02/09 23:43:52;;;;;;;1.40;1.30;;;20.30;48.30;;;;;;10358080;28;20050;-47
2024/02/09 23:48:54;;;;;;;1.25;1.10;;;20.20;48.40;;;;;;10354216;28;20145;-49
2024/02/09 23:53:57;;;;;;;2.30;1.42;;;20.20;48.40;;;;;;10354168;28;20053;-51
2024/02/09 23:58:59;;;;;;;1.30;1.20;;;20.20;48.40;;;;;;10353865;28;20050;-50
